Time;durP1;ratioP1;P1;durP2;ratioP2;P2;SDS_P1;SDS_P2;PMS_P1;PMS_P2;Temp;Humidity;BMP_temperature;BMP_pressure;BME280_temperature;BME280_humidity;BME280_pressure;Samples;Min_cycle;Max_cycle;Signal;HPM_P1;HPM_P2
2022/11/16 00:02:17;;;;;;;2.77;2.57;;;;;;;;;;4999154;28;20206;-54
2022/11/16 00:04:43;;;;;;;3.27;2.97;;;;;;;;;;5005339;28;20184;-54
2022/11/16 00:07:09;;;;;;;3.33;3.13;;;;;;;;;;4991371;28;20188;-53
2022/11/16 00:09:35;;;;;;;3.00;2.70;;;;;;;;;;4993444;28;20642;-55
2022/11/16 00:12:03;;;;;;;2.90;2.70;;;;;;;;;;4996193;28;20662;-54
2022/11/16 00:14:31;;;;;;;2.90;2.70;;;;;;;;;;4993665;28;20634;-53
2022/11/16 00:16:57;;;;;;;3.73;3.43;;;;;;;;;;4995081;28;20230;-54
2022/11/16 00:19:24;;;;;;;3.20;2.90;;;;;;;;;;5000462;28;20432;-54
2022/11/16 00:21:50;;;;;;;5.17;3.43;;;;;;;;;;4986103;28;20198;-55
2022/11/16 00:24:17;;;;;;;3.50;3.20;;;;;;;;;;4988760;28;20197;-53
2022/11/16 00:26:43;;;;;;;3.20;2.90;;;;;;;;;;4990845;28;20282;-54
2022/11/16 00:29:17;;;;;;;2.83;2.63;;;;;;;;;;4988146;28;20187;-54
2022/11/16 00:31:44;;;;;;;3.67;3.37;;;;;;;;;;4989520;28;20265;-53
2022/11/16 00:34:10;;;;;;;4.83;3.27;;;;;;;;;;4992698;28;20237;-54
2022/11/16 00:36:36;;;;;;;3.40;3.03;;;;;;;;;;4988894;28;20186;-53
2022/11/16 00:39:03;;;;;;;3.60;3.30;;;;;;;;;;4991041;28;20233;-54
2022/11/16 00:41:29;;;;;;;3.40;3.10;;;;;;;;;;4988541;28;20266;-53
2022/11/16 00:43:55;;;;;;;4.47;3.20;;;;;;;;;;4993385;28;20657;-53
2022/11/16 00:46:21;;;;;;;4.57;3.67;;;;;;;;;;4987789;28;20755;-54
2022/11/16 00:48:47;;;;;;;3.40;3.10;;;;;;;;;;4991338;28;20179;-53
2022/11/16 00:51:13;;;;;;;3.90;3.50;;;;;;;;;;4991911;28;20182;-53
2022/11/16 00:53:39;;;;;;;3.20;3.00;;;;;;;;;;5003852;28;20194;-54
2022/11/16 00:56:06;;;;;;;3.47;3.17;;;;;;;;;;4995391;28;20191;-54
2022/11/16 00:58:32;;;;;;;5.40;3.33;;;;;;;;;;4991693;28;20219;-52
2022/11/16 01:01:02;;;;;;;3.47;3.27;;;;;;;;;;4999275;28;20476;-59
2022/11/16 01:03:28;;;;;;;3.10;2.87;;;;;;;;;;4995074;28;20260;-53
2022/11/16 01:05:59;;;;;;;3.90;3.30;;;;;;;;;;4988834;28;20179;-54
2022/11/16 01:08:25;;;;;;;3.80;3.50;;;;;;;;;;4989671;28;20524;-54
2022/11/16 01:10:51;;;;;;;3.83;3.43;;;;;;;;;;4991177;28;20179;-55
2022/11/16 01:13:17;;;;;;;3.20;2.90;;;;;;;;;;4989352;28;20187;-54
2022/11/16 01:15:53;;;;;;;4.00;3.63;;;;;;;;;;4985690;28;20261;-53
2022/11/16 01:18:19;;;;;;;4.40;3.70;;;;;;;;;;4990798;28;20222;-53
2022/11/16 01:20:45;;;;;;;3.73;3.23;;;;;;;;;;5010259;28;20549;-54
2022/11/16 01:23:11;;;;;;;4.07;3.67;;;;;;;;;;4999063;28;20203;-53
2022/11/16 01:25:37;;;;;;;4.30;3.90;;;;;;;;;;4994833;28;20650;-55
2022/11/16 01:28:04;;;;;;;4.03;3.63;;;;;;;;;;4983628;28;20408;-53
2022/11/16 01:30:30;;;;;;;4.13;3.70;;;;;;;;;;4985556;28;20195;-54
2022/11/16 01:32:56;;;;;;;3.83;3.47;;;;;;;;;;4992228;28;20191;-52
2022/11/16 01:35:22;;;;;;;3.80;3.50;;;;;;;;;;4992014;28;20179;-52
2022/11/16 01:37:48;;;;;;;4.10;3.77;;;;;;;;;;4997045;28;20186;-54
2022/11/16 01:40:14;;;;;;;3.43;3.17;;;;;;;;;;4983868;28;20183;-53
2022/11/16 01:42:40;;;;;;;5.07;4.63;;;;;;;;;;4984555;28;20571;-53
2022/11/16 01:45:22;;;;;;;6.53;3.80;;;;;;;;;;4984395;28;20175;-53
2022/11/16 01:47:48;;;;;;;4.30;3.90;;;;;;;;;;4969838;28;20805;-52
2022/11/16 01:50:15;;;;;;;4.97;4.00;;;;;;;;;;4985740;28;20454;-53
2022/11/16 01:52:52;;;;;;;3.80;3.20;;;;;;;;;;4993627;28;20182;-53
2022/11/16 01:55:18;;;;;;;4.07;3.63;;;;;;;;;;4987054;28;20889;-52
2022/11/16 01:57:45;;;;;;;3.60;3.30;;;;;;;;;;4995478;28;20548;-52
2022/11/16 02:00:12;;;;;;;3.77;3.37;;;;;;;;;;4990339;28;20190;-53
2022/11/16 02:02:38;;;;;;;5.90;3.77;;;;;;;;;;4991889;28;20206;-53
2022/11/16 02:05:04;;;;;;;4.33;3.93;;;;;;;;;;4988784;28;20587;-52
2022/11/16 02:07:30;;;;;;;3.63;3.33;;;;;;;;;;5000211;28;20430;-52
2022/11/16 02:09:57;;;;;;;4.00;3.70;;;;;;;;;;5002949;28;20182;-53
2022/11/16 02:12:32;;;;;;;4.10;3.80;;;;;;;;;;4995443;28;20466;-52
2022/11/16 02:15:25;;;;;;;3.90;3.60;;;;;;;;;;4977544;28;20182;-53
2022/11/16 02:18:06;;;;;;;5.30;3.90;;;;;;;;;;4965358;28;20593;-53
2022/11/16 02:20:56;;;;;;;4.13;3.83;;;;;;;;;;4974365;28;20945;-53
2022/11/16 02:23:30;;;;;;;4.10;3.70;;;;;;;;;;4959404;28;20704;-52
2022/11/16 02:26:12;;;;;;;4.00;3.70;;;;;;;;;;4976729;28;20518;-53
2022/11/16 02:28:38;;;;;;;3.30;3.00;;;;;;;;;;4969210;28;20586;-53
2022/11/16 02:31:06;;;;;;;4.90;3.63;;;;;;;;;;4969400;28;20187;-54
2022/11/16 02:33:38;;;;;;;4.93;3.93;;;;;;;;;;4968779;28;20175;-52
2022/11/16 02:36:07;;;;;;;3.93;3.53;;;;;;;;;;4971301;28;20179;-52
2022/11/16 02:38:38;;;;;;;3.93;3.63;;;;;;;;;;4968586;28;20192;-52
2022/11/16 02:41:19;;;;;;;4.10;3.70;;;;;;;;;;4974948;28;20184;-53
2022/11/16 02:43:48;;;;;;;3.63;3.33;;;;;;;;;;4973578;28;20294;-54
2022/11/16 02:46:36;;;;;;;4.13;3.73;;;;;;;;;;4972748;28;20362;-53
2022/11/16 02:49:03;;;;;;;3.67;3.37;;;;;;;;;;4969563;28;20566;-53
2022/11/16 02:51:30;;;;;;;3.70;3.40;;;;;;;;;;4974383;28;20183;-53
2022/11/16 02:54:01;;;;;;;3.50;3.20;;;;;;;;;;4971927;28;20242;-52
2022/11/16 02:56:28;;;;;;;3.97;3.47;;;;;;;;;;4970539;28;20184;-52
2022/11/16 02:58:54;;;;;;;5.90;3.33;;;;;;;;;;4952730;28;20458;-54
2022/11/16 03:01:25;;;;;;;4.30;3.90;;;;;;;;;;4974797;28;20187;-53
2022/11/16 03:04:01;;;;;;;3.53;3.23;;;;;;;;;;4983127;28;20195;-52
2022/11/16 03:06:29;;;;;;;5.00;3.90;;;;;;;;;;4980164;28;20801;-54
2022/11/16 03:09:05;;;;;;;3.43;3.13;;;;;;;;;;4975115;28;20197;-53
2022/11/16 03:14:19;;;;;;;4.20;3.47;;;;;;;;;;4978134;28;20685;-54
2022/11/16 03:16:48;;;;;;;4.17;3.63;;;;;;;;;;4966816;28;20230;-52
2022/11/16 03:19:15;;;;;;;3.60;3.30;;;;;;;;;;4999854;28;20665;-52
2022/11/16 03:22:00;;;;;;;3.53;3.23;;;;;;;;;;4990498;28;20273;-52
2022/11/16 03:24:26;;;;;;;4.00;3.60;;;;;;;;;;4991676;28;20214;-52
2022/11/16 03:27:10;;;;;;;3.57;3.33;;;;;;;;;;5001339;28;20512;-52
2022/11/16 03:29:53;;;;;;;3.70;3.40;;;;;;;;;;4990064;28;20242;-54
2022/11/16 03:32:48;;;;;;;3.33;3.03;;;;;;;;;;4993898;28;20190;-53
2022/11/16 03:35:14;;;;;;;4.20;3.80;;;;;;;;;;4975495;28;20592;-52
2022/11/16 03:37:41;;;;;;;4.23;3.67;;;;;;;;;;4993369;28;20191;-52
2022/11/16 03:40:08;;;;;;;3.57;3.27;;;;;;;;;;4989823;28;20179;-53
2022/11/16 03:42:34;;;;;;;4.40;4.10;;;;;;;;;;4992328;28;20201;-52
2022/11/16 03:45:01;;;;;;;3.40;3.10;;;;;;;;;;4994607;28;20194;-53
2022/11/16 03:47:27;;;;;;;3.27;3.07;;;;;;;;;;4992122;28;20206;-53
2022/11/16 03:49:53;;;;;;;3.80;3.40;;;;;;;;;;4997170;28;20186;-53
2022/11/16 03:52:19;;;;;;;4.03;3.63;;;;;;;;;;4989683;28;20245;-52
2022/11/16 03:54:48;;;;;;;4.00;3.70;;;;;;;;;;4994532;28;20190;-53
2022/11/16 03:57:17;;;;;;;3.93;3.60;;;;;;;;;;4991650;28;20192;-52
2022/11/16 03:59:43;;;;;;;4.13;3.73;;;;;;;;;;4990256;28;20189;-52
2022/11/16 04:02:09;;;;;;;5.53;3.57;;;;;;;;;;4978436;28;20245;-52
2022/11/16 04:29:18;;;;;;;4.60;4.20;;;;;;;;;;4992863;28;20193;-52
2022/11/16 04:39:59;;;;;;;4.20;3.80;;;;;;;;;;4990095;28;20532;-53
2022/11/16 04:42:25;;;;;;;5.87;3.83;;;;;;;;;;4997912;28;20258;-53
2022/11/16 04:47:36;;;;;;;4.17;3.77;;;;;;;;;;4987988;28;20390;-52
2022/11/16 04:50:02;;;;;;;4.83;4.20;;;;;;;;;;4994380;28;20639;-53
2022/11/16 04:52:28;;;;;;;4.30;4.00;;;;;;;;;;4996635;28;20218;-52
2022/11/16 04:54:54;;;;;;;5.23;4.80;;;;;;;;;;4996532;28;20290;-53
2022/11/16 04:57:20;;;;;;;4.60;4.20;;;;;;;;;;4987111;28;20638;-52
2022/11/16 04:59:46;;;;;;;4.90;4.50;;;;;;;;;;5001952;28;20213;-53
2022/11/16 05:02:12;;;;;;;7.03;6.43;;;;;;;;;;4993822;28;20630;-52
2022/11/16 05:04:42;;;;;;;5.03;4.50;;;;;;;;;;4998101;28;20183;-51
2022/11/16 05:07:10;;;;;;;6.40;4.10;;;;;;;;;;4994491;28;20565;-52
2022/11/16 05:09:44;;;;;;;5.13;4.63;;;;;;;;;;4990978;28;20175;-53
2022/11/16 05:12:10;;;;;;;5.97;4.20;;;;;;;;;;4993074;28;20257;-52
2022/11/16 05:14:36;;;;;;;4.50;4.10;;;;;;;;;;5000341;28;20174;-53
2022/11/16 05:17:03;;;;;;;6.20;4.80;;;;;;;;;;4997210;28;20209;-52
2022/11/16 05:22:13;;;;;;;4.40;4.00;;;;;;;;;;4990778;28;20684;-52
2022/11/16 05:24:39;;;;;;;5.10;4.60;;;;;;;;;;4998049;28;20221;-52
2022/11/16 05:27:10;;;;;;;5.30;4.83;;;;;;;;;;4994974;28;20269;-53
2022/11/16 05:29:36;;;;;;;5.00;4.60;;;;;;;;;;4987416;28;20179;-52
2022/11/16 05:32:02;;;;;;;4.30;4.00;;;;;;;;;;4988854;28;21332;-52
2022/11/16 05:34:29;;;;;;;4.10;3.70;;;;;;;;;;4986079;28;20194;-52
2022/11/16 05:36:55;;;;;;;4.23;3.83;;;;;;;;;;4984286;28;20250;-53
2022/11/16 05:39:22;;;;;;;3.93;3.53;;;;;;;;;;4988803;28;20187;-52
2022/11/16 05:41:48;;;;;;;3.63;3.33;;;;;;;;;;4998312;28;20337;-54
2022/11/16 05:44:14;;;;;;;3.93;2.80;;;;;;;;;;4993353;28;20281;-52
2022/11/16 05:46:41;;;;;;;3.97;3.63;;;;;;;;;;4992484;28;20206;-53
2022/11/16 05:49:07;;;;;;;4.37;3.97;;;;;;;;;;4990798;28;21084;-52
2022/11/16 05:51:36;;;;;;;4.93;3.83;;;;;;;;;;4996855;28;20185;-52
2022/11/16 05:54:03;;;;;;;4.20;3.67;;;;;;;;;;4992439;28;20891;-52
2022/11/16 05:56:29;;;;;;;3.27;2.97;;;;;;;;;;4996420;28;20195;-54
2022/11/16 05:58:56;;;;;;;3.83;3.10;;;;;;;;;;4985209;28;20198;-53
2022/11/16 06:01:22;;;;;;;3.80;2.97;;;;;;;;;;4989000;28;20175;-53
2022/11/16 06:03:48;;;;;;;3.30;3.00;;;;;;;;;;4986935;28;20646;-53
2022/11/16 06:06:14;;;;;;;3.80;3.50;;;;;;;;;;4978435;28;20629;-53
2022/11/16 06:08:40;;;;;;;6.03;3.20;;;;;;;;;;4977252;28;20191;-53
2022/11/16 06:11:07;;;;;;;3.43;3.13;;;;;;;;;;4983912;28;20603;-53
2022/11/16 06:13:33;;;;;;;3.40;3.10;;;;;;;;;;4988944;28;20259;-53
2022/11/16 06:15:59;;;;;;;3.23;3.03;;;;;;;;;;4988937;28;20184;-52
2022/11/16 06:18:26;;;;;;;2.80;2.60;;;;;;;;;;4984964;28;20290;-53
2022/11/16 06:20:52;;;;;;;4.53;2.90;;;;;;;;;;4984802;28;20182;-53
2022/11/16 06:23:18;;;;;;;4.33;3.53;;;;;;;;;;4991457;28;20247;-53
2022/11/16 06:25:44;;;;;;;3.20;2.90;;;;;;;;;;4986123;28;20612;-53
2022/11/16 06:28:10;;;;;;;2.90;2.60;;;;;;;;;;4988299;28;20195;-53
2022/11/16 06:30:40;;;;;;;4.57;3.40;;;;;;;;;;4994273;28;20622;-52
2022/11/16 06:33:06;;;;;;;3.17;2.53;;;;;;;;;;4991089;28;20931;-53
2022/11/16 06:35:32;;;;;;;2.70;2.50;;;;;;;;;;5002311;28;20171;-53
2022/11/16 06:37:58;;;;;;;3.07;2.77;;;;;;;;;;4995659;28;20186;-53
2022/11/16 06:40:25;;;;;;;4.00;3.40;;;;;;;;;;4992234;28;20182;-52
2022/11/16 06:42:51;;;;;;;5.73;2.90;;;;;;;;;;4997020;28;20748;-53
2022/11/16 06:45:17;;;;;;;2.90;2.60;;;;;;;;;;4984393;28;20168;-53
2022/11/16 06:47:43;;;;;;;3.30;3.00;;;;;;;;;;4984951;28;20207;-52
2022/11/16 06:50:09;;;;;;;3.27;2.87;;;;;;;;;;4989206;28;20230;-52
2022/11/16 06:52:35;;;;;;;2.97;2.60;;;;;;;;;;4987911;28;20171;-52
2022/11/16 06:55:01;;;;;;;3.33;2.80;;;;;;;;;;4993713;28;20175;-52
2022/11/16 06:57:28;;;;;;;2.73;2.53;;;;;;;;;;4988970;28;20191;-53
2022/11/16 06:59:54;;;;;;;3.10;2.87;;;;;;;;;;4988049;28;20666;-53
2022/11/16 07:02:21;;;;;;;3.63;2.80;;;;;;;;;;5002810;28;20213;-53
2022/11/16 07:04:50;;;;;;;3.67;3.27;;;;;;;;;;5003316;28;20188;-52
2022/11/16 07:07:16;;;;;;;3.07;2.70;;;;;;;;;;5005603;28;20163;-52
2022/11/16 07:09:43;;;;;;;2.87;2.67;;;;;;;;;;5003931;28;20182;-52
2022/11/16 07:12:09;;;;;;;4.23;2.50;;;;;;;;;;4982810;28;20185;-53
2022/11/16 07:14:35;;;;;;;3.53;3.23;;;;;;;;;;5006116;28;20181;-52
2022/11/16 07:17:01;;;;;;;3.03;2.70;;;;;;;;;;5006211;28;20685;-52
2022/11/16 07:19:28;;;;;;;2.50;2.30;;;;;;;;;;4989477;28;20218;-51
2022/11/16 07:21:53;;;;;;;5.40;2.90;;;;;;;;;;5006570;28;20166;-52
2022/11/16 07:24:20;;;;;;;4.43;2.80;;;;;;;;;;5000483;28;20524;-52
2022/11/16 07:26:46;;;;;;;2.97;2.77;;;;;;;;;;4999684;28;20402;-53
2022/11/16 07:29:12;;;;;;;4.97;2.93;;;;;;;;;;4991025;28;20198;-52
2022/11/16 07:31:38;;;;;;;3.10;2.80;;;;;;;;;;4996826;28;20310;-52
2022/11/16 07:34:04;;;;;;;4.37;2.77;;;;;;;;;;4994937;28;20182;-52
2022/11/16 07:36:30;;;;;;;2.40;2.20;;;;;;;;;;5006497;28;20660;-51
2022/11/16 07:38:56;;;;;;;3.27;2.83;;;;;;;;;;4996839;28;20668;-51
2022/11/16 07:41:23;;;;;;;3.30;3.00;;;;;;;;;;5000205;28;20659;-51
2022/11/16 07:43:49;;;;;;;6.33;2.50;;;;;;;;;;5002118;28;20618;-52
2022/11/16 07:46:16;;;;;;;3.00;2.70;;;;;;;;;;4984078;28;20231;-52
2022/11/16 07:48:43;;;;;;;3.07;2.33;;;;;;;;;;5002975;28;20179;-52
2022/11/16 07:51:10;;;;;;;2.80;2.50;;;;;;;;;;5001353;28;20229;-56
2022/11/16 07:53:37;;;;;;;2.30;2.10;;;;;;;;;;4996336;28;20947;-52
2022/11/16 07:56:03;;;;;;;3.97;3.07;;;;;;;;;;4989477;28;20874;-53
2022/11/16 07:58:32;;;;;;;3.37;2.50;;;;;;;;;;4998806;28;20673;-53
2022/11/16 08:01:11;;;;;;;5.07;2.90;;;;;;;;;;4995705;28;20605;-52
2022/11/16 08:03:38;;;;;;;3.47;2.83;;;;;;;;;;4994714;28;20658;-53
2022/11/16 08:06:05;;;;;;;4.13;2.47;;;;;;;;;;4993495;28;20183;-52
2022/11/16 08:08:39;;;;;;;3.37;2.57;;;;;;;;;;4998430;28;20174;-52
2022/11/16 08:11:06;;;;;;;2.93;2.60;;;;;;;;;;5001238;28;20181;-52
2022/11/16 08:13:39;;;;;;;2.60;2.23;;;;;;;;;;5002561;28;21250;-53
2022/11/16 08:16:08;;;;;;;3.83;2.50;;;;;;;;;;4998363;28;20174;-52
2022/11/16 08:18:34;;;;;;;3.57;2.10;;;;;;;;;;4997374;28;20353;-52
2022/11/16 08:21:01;;;;;;;4.10;2.53;;;;;;;;;;4993614;28;20192;-52
2022/11/16 08:23:27;;;;;;;3.10;2.07;;;;;;;;;;4995296;28;20217;-52
2022/11/16 08:25:58;;;;;;;2.73;2.53;;;;;;;;;;5000548;28;20708;-52
2022/11/16 08:28:24;;;;;;;3.93;2.33;;;;;;;;;;4988271;28;20262;-51
2022/11/16 08:30:51;;;;;;;6.63;2.60;;;;;;;;;;5005537;28;20501;-52
2022/11/16 08:33:19;;;;;;;3.30;2.30;;;;;;;;;;5003489;28;20221;-52
2022/11/16 08:35:47;;;;;;;4.07;2.60;;;;;;;;;;5004024;28;20728;-52
2022/11/16 08:38:13;;;;;;;5.90;2.40;;;;;;;;;;5005651;28;20194;-54
2022/11/16 08:40:39;;;;;;;4.17;2.57;;;;;;;;;;5005387;28;20170;-52
2022/11/16 08:43:05;;;;;;;2.90;2.17;;;;;;;;;;4990450;28;20446;-53
2022/11/16 08:45:32;;;;;;;2.67;2.20;;;;;;;;;;5002251;28;20190;-52
2022/11/16 08:47:58;;;;;;;5.17;2.47;;;;;;;;;;4997902;28;20171;-51
2022/11/16 08:50:25;;;;;;;2.43;2.23;;;;;;;;;;5005442;28;20250;-51
2022/11/16 08:52:51;;;;;;;2.53;2.33;;;;;;;;;;4991408;28;20243;-51
2022/11/16 08:55:17;;;;;;;5.10;2.27;;;;;;;;;;4973189;28;20186;-52
2022/11/16 08:57:46;;;;;;;3.13;2.63;;;;;;;;;;5002796;28;20249;-52
2022/11/16 09:00:13;;;;;;;4.20;2.27;;;;;;;;;;5000359;28;20428;-51
2022/11/16 09:02:39;;;;;;;3.63;2.77;;;;;;;;;;4998751;28;21400;-52
2022/11/16 09:05:06;;;;;;;3.13;2.83;;;;;;;;;;4992366;28;20179;-52
2022/11/16 09:07:32;;;;;;;3.90;2.57;;;;;;;;;;4992663;28;20187;-52
2022/11/16 09:09:58;;;;;;;5.80;2.67;;;;;;;;;;4985604;28;20175;-51
2022/11/16 09:12:24;;;;;;;4.77;2.33;;;;;;;;;;5000574;28;20202;-51
2022/11/16 09:14:50;;;;;;;5.43;3.00;;;;;;;;;;5005049;28;20178;-52
2022/11/16 09:17:17;;;;;;;4.80;2.70;;;;;;;;;;5004912;28;20186;-52
2022/11/16 09:19:43;;;;;;;7.27;3.17;;;;;;;;;;4986153;28;20301;-52
2022/11/16 09:22:09;;;;;;;4.73;2.43;;;;;;;;;;4974523;28;20324;-53
2022/11/16 09:24:35;;;;;;;5.87;3.10;;;;;;;;;;4985464;28;20214;-52
2022/11/16 09:27:01;;;;;;;6.10;2.63;;;;;;;;;;4979544;28;20564;-52
2022/11/16 09:29:27;;;;;;;5.00;2.53;;;;;;;;;;4975088;28;20262;-52
2022/11/16 09:31:53;;;;;;;5.73;2.67;;;;;;;;;;4982679;28;20199;-52
2022/11/16 09:34:20;;;;;;;5.67;2.80;;;;;;;;;;4966782;28;20183;-52
2022/11/16 09:36:46;;;;;;;5.60;2.87;;;;;;;;;;4983620;28;20191;-51
2022/11/16 09:39:12;;;;;;;3.43;2.50;;;;;;;;;;4980722;28;20187;-52
2022/11/16 09:41:57;;;;;;;5.17;2.77;;;;;;;;;;4979239;28;20399;-52
2022/11/16 09:44:37;;;;;;;4.37;2.37;;;;;;;;;;4967077;28;20217;-51
2022/11/16 09:47:04;;;;;;;4.60;2.40;;;;;;;;;;4975856;28;20257;-51
2022/11/16 09:49:35;;;;;;;2.70;2.10;;;;;;;;;;4980148;28;20677;-52
2022/11/16 09:52:03;;;;;;;5.73;2.53;;;;;;;;;;4978210;28;20183;-52
2022/11/16 09:54:32;;;;;;;9.87;2.70;;;;;;;;;;4984566;28;20227;-52
2022/11/16 09:56:59;;;;;;;5.43;2.30;;;;;;;;;;4983872;28;20179;-51
2022/11/16 09:59:28;;;;;;;5.40;2.53;;;;;;;;;;4977202;28;20192;-51
2022/11/16 10:02:09;;;;;;;5.20;2.67;;;;;;;;;;4974537;28;20658;-52
2022/11/16 10:04:42;;;;;;;3.63;2.33;;;;;;;;;;4973496;28;20278;-52
2022/11/16 10:07:16;;;;;;;5.57;2.30;;;;;;;;;;4982849;28;20175;-52
2022/11/16 10:09:43;;;;;;;6.87;2.43;;;;;;;;;;4984588;28;20183;-51
2022/11/16 10:12:13;;;;;;;2.43;1.90;;;;;;;;;;4983907;28;20314;-52
2022/11/16 10:14:39;;;;;;;5.00;2.27;;;;;;;;;;4982056;28;20667;-52
2022/11/16 10:17:24;;;;;;;5.07;2.30;;;;;;;;;;4972829;28;20309;-52
2022/11/16 10:19:59;;;;;;;10.67;2.13;;;;;;;;;;4993857;28;20317;-51
2022/11/16 10:22:25;;;;;;;8.50;2.27;;;;;;;;;;4990452;28;20234;-52
2022/11/16 10:24:52;;;;;;;7.93;2.73;;;;;;;;;;5011653;28;20626;-53
2022/11/16 10:27:31;;;;;;;4.40;2.40;;;;;;;;;;5008039;28;20688;-52
2022/11/16 10:30:12;;;;;;;3.07;2.10;;;;;;;;;;4997673;28;20191;-52
2022/11/16 10:32:38;;;;;;;7.30;2.47;;;;;;;;;;4997725;28;20748;-52
2022/11/16 10:35:11;;;;;;;6.90;2.33;;;;;;;;;;4990249;28;20237;-53
2022/11/16 10:37:44;;;;;;;2.80;2.20;;;;;;;;;;4998420;28;20600;-52
2022/11/16 10:40:13;;;;;;;5.03;2.07;;;;;;;;;;4977070;28;20186;-52
2022/11/16 10:42:39;;;;;;;2.37;1.60;;;;;;;;;;4997334;28;20203;-52
2022/11/16 10:45:11;;;;;;;2.67;2.07;;;;;;;;;;4998972;28;20174;-52
2022/11/16 10:47:49;;;;;;;4.60;2.33;;;;;;;;;;5006744;28;20222;-51
2022/11/16 10:50:25;;;;;;;6.50;1.93;;;;;;;;;;5007696;28;20190;-52
2022/11/16 10:52:51;;;;;;;3.53;1.97;;;;;;;;;;4999762;28;20215;-52
2022/11/16 10:55:20;;;;;;;4.53;2.37;;;;;;;;;;4987921;28;20222;-52
2022/11/16 10:58:00;;;;;;;4.90;2.10;;;;;;;;;;4999355;28;20170;-53
2022/11/16 11:00:38;;;;;;;3.90;2.30;;;;;;;;;;5007486;28;20166;-52
2022/11/16 11:03:04;;;;;;;3.30;2.47;;;;;;;;;;4987257;28;20218;-52
2022/11/16 11:05:30;;;;;;;3.90;2.30;;;;;;;;;;5007427;28;20787;-53
2022/11/16 11:08:04;;;;;;;4.23;2.90;;;;;;;;;;5003692;28;20163;-52
2022/11/16 11:10:41;;;;;;;2.27;1.87;;;;;;;;;;4977661;28;20404;-53
2022/11/16 11:13:07;;;;;;;4.70;2.33;;;;;;;;;;5001096;28;20170;-53
2022/11/16 11:15:33;;;;;;;4.40;2.07;;;;;;;;;;4988718;28;20183;-52
2022/11/16 11:18:19;;;;;;;4.63;2.10;;;;;;;;;;4993624;28;20256;-53
2022/11/16 11:20:57;;;;;;;4.17;2.23;;;;;;;;;;5023217;28;20366;-53
2022/11/16 11:23:24;;;;;;;6.60;2.30;;;;;;;;;;5004896;28;20670;-53
2022/11/16 11:25:52;;;;;;;4.67;2.00;;;;;;;;;;4990905;28;20549;-53
2022/11/16 11:28:26;;;;;;;3.90;2.07;;;;;;;;;;4992870;28;20599;-53
2022/11/16 11:30:52;;;;;;;3.93;1.87;;;;;;;;;;4987412;28;20492;-53
2022/11/16 11:33:22;;;;;;;3.87;1.97;;;;;;;;;;5015784;28;20644;-52
2022/11/16 11:35:56;;;;;;;6.27;2.23;;;;;;;;;;4990057;28;20888;-52
2022/11/16 11:38:22;;;;;;;6.30;2.23;;;;;;;;;;5010841;28;20193;-53
2022/11/16 11:40:59;;;;;;;5.37;2.10;;;;;;;;;;5007222;28;20507;-52
2022/11/16 11:43:26;;;;;;;3.63;2.53;;;;;;;;;;5004272;28;20199;-52
2022/11/16 11:46:12;;;;;;;4.10;1.80;;;;;;;;;;4996211;28;20221;-53
2022/11/16 11:48:46;;;;;;;6.03;2.63;;;;;;;;;;5012740;28;20209;-52
2022/11/16 11:51:22;;;;;;;3.70;2.37;;;;;;;;;;4991577;28;20546;-53
2022/11/16 11:53:51;;;;;;;3.10;2.20;;;;;;;;;;5007194;28;20182;-53
2022/11/16 11:56:17;;;;;;;3.20;2.30;;;;;;;;;;5005520;28;20167;-53
2022/11/16 11:58:44;;;;;;;6.70;2.70;;;;;;;;;;4990315;28;20191;-53
2022/11/16 12:01:22;;;;;;;2.27;1.93;;;;;;;;;;4986621;28;20182;-53
2022/11/16 12:03:57;;;;;;;4.83;2.60;;;;;;;;;;5025692;28;20209;-53
2022/11/16 12:06:29;;;;;;;4.67;2.50;;;;;;;;;;5012781;28;20214;-53
2022/11/16 12:09:13;;;;;;;4.80;2.23;;;;;;;;;;4969441;28;20262;-54
2022/11/16 12:11:42;;;;;;;4.70;2.27;;;;;;;;;;4989669;28;20269;-53
2022/11/16 12:14:11;;;;;;;3.07;2.00;;;;;;;;;;5006014;28;20649;-53
2022/11/16 12:16:40;;;;;;;6.53;2.50;;;;;;;;;;5005429;28;20224;-54
2022/11/16 12:19:25;;;;;;;4.70;2.10;;;;;;;;;;5008517;28;20661;-53
2022/11/16 12:22:05;;;;;;;4.43;2.60;;;;;;;;;;5005998;28;20252;-52
2022/11/16 12:24:46;;;;;;;4.87;2.20;;;;;;;;;;5005043;28;20269;-53
2022/11/16 12:27:38;;;;;;;8.13;2.63;;;;;;;;;;5004495;28;20202;-53
2022/11/16 12:30:13;;;;;;;4.97;2.13;;;;;;;;;;5003443;28;20197;-53
2022/11/16 12:32:58;;;;;;;4.30;2.03;;;;;;;;;;5005232;28;20217;-53
2022/11/16 12:35:39;;;;;;;4.67;2.80;;;;;;;;;;4998245;28;20274;-52
2022/11/16 12:38:14;;;;;;;3.47;2.10;;;;;;;;;;5004316;28;20664;-53
2022/11/16 12:40:49;;;;;;;2.87;2.07;;;;;;;;;;4996942;28;20642;-54
2022/11/16 12:43:27;;;;;;;3.73;2.13;;;;;;;;;;5001073;28;20202;-61
2022/11/16 12:45:53;;;;;;;4.70;2.50;;;;;;;;;;5005642;28;20203;-54
2022/11/16 12:48:28;;;;;;;2.77;2.07;;;;;;;;;;5005212;28;20520;-54
2022/11/16 12:51:04;;;;;;;2.47;1.90;;;;;;;;;;5005186;28;20221;-54
2022/11/16 12:53:43;;;;;;;4.50;2.27;;;;;;;;;;4989671;28;20636;-54
2022/11/16 12:56:23;;;;;;;3.27;2.40;;;;;;;;;;4985658;28;20187;-54
2022/11/16 12:59:06;;;;;;;3.03;2.43;;;;;;;;;;5004567;28;20596;-54
2022/11/16 13:01:38;;;;;;;4.13;2.33;;;;;;;;;;4991234;28;20262;-53
2022/11/16 13:04:08;;;;;;;2.80;2.60;;;;;;;;;;4993041;28;20210;-53
2022/11/16 13:06:34;;;;;;;2.87;2.37;;;;;;;;;;4987784;28;20176;-53
2022/11/16 13:09:10;;;;;;;3.73;2.20;;;;;;;;;;5004880;28;20173;-53
2022/11/16 13:11:43;;;;;;;4.60;2.20;;;;;;;;;;4987228;28;20163;-53
2022/11/16 13:14:18;;;;;;;4.43;2.73;;;;;;;;;;4976458;28;20267;-53
2022/11/16 13:16:53;;;;;;;3.97;2.30;;;;;;;;;;4971563;28;20190;-53
2022/11/16 13:19:26;;;;;;;3.87;2.50;;;;;;;;;;5007280;28;20233;-54
2022/11/16 13:21:58;;;;;;;3.90;2.03;;;;;;;;;;5002785;28;20193;-54
2022/11/16 13:24:46;;;;;;;2.93;2.20;;;;;;;;;;5005419;28;20202;-53
2022/11/16 13:27:31;;;;;;;3.93;1.97;;;;;;;;;;5005371;28;20382;-54
2022/11/16 13:30:01;;;;;;;5.93;1.97;;;;;;;;;;4999137;28;20633;-53
2022/11/16 13:32:46;;;;;;;3.20;2.40;;;;;;;;;;4991233;28;20700;-54
2022/11/16 13:35:16;;;;;;;4.10;2.47;;;;;;;;;;5004186;28;20629;-53
2022/11/16 13:37:49;;;;;;;3.33;2.10;;;;;;;;;;5001933;28;20789;-54
2022/11/16 13:40:26;;;;;;;3.93;1.87;;;;;;;;;;4997306;28;20189;-53
2022/11/16 13:43:00;;;;;;;5.33;2.30;;;;;;;;;;4997443;28;20213;-53
2022/11/16 13:45:29;;;;;;;3.97;2.10;;;;;;;;;;5002332;28;20659;-54
2022/11/16 13:47:56;;;;;;;4.10;2.00;;;;;;;;;;5004008;28;20181;-53
2022/11/16 13:50:23;;;;;;;3.23;1.80;;;;;;;;;;5004918;28;20213;-53
2022/11/16 13:52:51;;;;;;;5.13;2.17;;;;;;;;;;5003447;28;20637;-52
2022/11/16 13:55:27;;;;;;;2.50;2.00;;;;;;;;;;5005440;28;20166;-53
2022/11/16 13:57:54;;;;;;;5.60;2.17;;;;;;;;;;5002708;28;20266;-53
2022/11/16 14:00:22;;;;;;;3.60;2.20;;;;;;;;;;5007916;28;20685;-53
2022/11/16 14:02:48;;;;;;;4.73;2.57;;;;;;;;;;5000677;28;20214;-52
2022/11/16 14:05:15;;;;;;;2.47;1.60;;;;;;;;;;5021246;28;20202;-53
2022/11/16 14:07:51;;;;;;;2.80;2.00;;;;;;;;;;4998888;28;20189;-53
2022/11/16 14:10:35;;;;;;;3.03;1.90;;;;;;;;;;5008880;28;20662;-53
2022/11/16 14:13:04;;;;;;;2.23;1.80;;;;;;;;;;4991044;28;20797;-53
2022/11/16 14:15:32;;;;;;;6.00;1.80;;;;;;;;;;4988268;28;20202;-52
2022/11/16 14:17:58;;;;;;;3.43;2.03;;;;;;;;;;5008617;28;20274;-53
2022/11/16 14:20:43;;;;;;;2.93;1.60;;;;;;;;;;4989137;28;20278;-54
2022/11/16 14:23:28;;;;;;;3.50;1.80;;;;;;;;;;4985131;28;20215;-54
2022/11/16 14:26:12;;;;;;;3.67;1.80;;;;;;;;;;4988569;28;20187;-53
2022/11/16 14:28:58;;;;;;;3.80;1.90;;;;;;;;;;4987854;28;20206;-54
2022/11/16 14:31:26;;;;;;;2.43;1.80;;;;;;;;;;4969561;28;20204;-53
2022/11/16 14:33:53;;;;;;;3.63;1.80;;;;;;;;;;4988792;28;20197;-53
2022/11/16 14:36:34;;;;;;;2.10;1.60;;;;;;;;;;4989287;28;20182;-53
2022/11/16 14:39:13;;;;;;;3.57;1.80;;;;;;;;;;4963979;28;20270;-53
2022/11/16 14:41:42;;;;;;;2.73;2.40;;;;;;;;;;4988750;28;20183;-54
2022/11/16 14:44:09;;;;;;;3.37;1.93;;;;;;;;;;4981526;28;20282;-53
2022/11/16 14:46:35;;;;;;;4.30;2.10;;;;;;;;;;4987913;28;20408;-53
2022/11/16 14:49:02;;;;;;;4.50;1.70;;;;;;;;;;4986979;28;20183;-53
2022/11/16 14:51:36;;;;;;;4.03;2.20;;;;;;;;;;4987098;28;20262;-53
2022/11/16 14:54:04;;;;;;;2.73;1.67;;;;;;;;;;4977332;28;20679;-54
2022/11/16 14:56:30;;;;;;;2.23;1.73;;;;;;;;;;4970460;28;20176;-53
2022/11/16 14:58:59;;;;;;;5.67;2.00;;;;;;;;;;4987468;28;20634;-53
2022/11/16 15:01:32;;;;;;;4.03;3.17;;;;;;;;;;4970346;28;20194;-53
2022/11/16 15:04:01;;;;;;;2.13;1.80;;;;;;;;;;4975650;28;20282;-54
2022/11/16 15:06:27;;;;;;;3.83;1.77;;;;;;;;;;4980940;28;20645;-53
2022/11/16 15:09:01;;;;;;;3.50;1.60;;;;;;;;;;4983313;28;20183;-53
2022/11/16 15:14:17;;;;;;;1.60;1.47;;;;;;;;;;4986812;28;20199;-53
2022/11/16 15:16:51;;;;;;;5.13;1.90;;;;;;;;;;4972140;28;20339;-53
2022/11/16 15:19:17;;;;;;;4.43;1.80;;;;;;;;;;4979803;28;20230;-54
2022/11/16 15:21:56;;;;;;;2.93;2.10;;;;;;;;;;4985603;28;21695;-53
2022/11/16 15:24:23;;;;;;;2.67;1.80;;;;;;;;;;4988575;28;20811;-54
2022/11/16 15:26:49;;;;;;;2.13;1.73;;;;;;;;;;4997015;28;20379;-54
2022/11/16 15:29:20;;;;;;;2.60;1.60;;;;;;;;;;5003119;28;20194;-54
2022/11/16 15:31:46;;;;;;;1.90;1.70;;;;;;;;;;4999306;28;20546;-53
2022/11/16 15:34:13;;;;;;;4.03;2.03;;;;;;;;;;5003771;28;20274;-54
2022/11/16 15:36:40;;;;;;;3.00;1.97;;;;;;;;;;5005347;28;20189;-54
2022/11/16 15:39:11;;;;;;;2.83;2.00;;;;;;;;;;4998348;28;20767;-55
2022/11/16 15:41:37;;;;;;;2.93;1.87;;;;;;;;;;4992037;28;20194;-56
2022/11/16 15:44:04;;;;;;;6.23;1.93;;;;;;;;;;4973089;28;20214;-54